Time;durP1;ratioP1;P1;durP2;ratioP2;P2;SDS_P1;SDS_P2;PMS_P1;PMS_P2;Temp;Humidity;BMP_temperature;BMP_pressure;BME280_temperature;BME280_humidity;BME280_pressure;Samples;Min_cycle;Max_cycle;Signal;HPM_P1;HPM_P2
2022/12/01 00:00:36;;;;;;;61.17;27.50;;;;;;;;;;5073455;28;20177;-41
2022/12/01 00:03:02;;;;;;;66.00;27.67;;;;;;;;;;5075241;28;20435;-42
2022/12/01 00:05:28;;;;;;;53.55;23.23;;;;;;;;;;5072930;28;21048;-42
2022/12/01 00:07:54;;;;;;;74.63;29.77;;;;;;;;;;5075171;28;20175;-42
2022/12/01 00:10:26;;;;;;;67.07;27.33;;;;;;;;;;5069530;28;20448;-43
2022/12/01 00:12:53;;;;;;;56.53;26.13;;;;;;;;;;5067651;28;20424;-42
2022/12/01 00:15:19;;;;;;;78.63;26.97;;;;;;;;;;5074710;28;20462;-42
2022/12/01 00:17:46;;;;;;;60.40;27.53;;;;;;;;;;5074926;28;20415;-43
2022/12/01 00:20:12;;;;;;;55.47;25.77;;;;;;;;;;5072347;28;20397;-43
2022/12/01 00:22:41;;;;;;;68.70;27.58;;;;;;;;;;5073671;28;20958;-43
2022/12/01 00:25:07;;;;;;;65.82;28.90;;;;;;;;;;5074457;28;20214;-42
2022/12/01 00:27:33;;;;;;;68.63;28.27;;;;;;;;;;5067908;28;20167;-42
2022/12/01 00:29:59;;;;;;;68.47;27.97;;;;;;;;;;5074220;28;20458;-42
2022/12/01 00:32:25;;;;;;;69.17;28.70;;;;;;;;;;5074476;28;20830;-43
2022/12/01 00:34:51;;;;;;;71.50;27.47;;;;;;;;;;5070933;28;20602;-42
2022/12/01 00:37:17;;;;;;;80.53;27.40;;;;;;;;;;5074616;28;20404;-42
2022/12/01 00:39:43;;;;;;;56.20;25.63;;;;;;;;;;5072592;28;20495;-42
2022/12/01 00:42:09;;;;;;;64.87;29.07;;;;;;;;;;5069234;28;20934;-42
2022/12/01 00:44:35;;;;;;;79.70;29.77;;;;;;;;;;5073947;28;20456;-41
2022/12/01 00:47:01;;;;;;;74.77;27.50;;;;;;;;;;5074579;28;20769;-42
2022/12/01 00:49:26;;;;;;;78.30;29.83;;;;;;;;;;5074003;28;20779;-43
2022/12/01 00:51:52;;;;;;;75.23;28.33;;;;;;;;;;5073965;28;20566;-42
2022/12/01 00:54:18;;;;;;;70.33;26.00;;;;;;;;;;5067562;28;20499;-42
2022/12/01 00:56:44;;;;;;;81.20;28.63;;;;;;;;;;5073799;28;20497;-42
2022/12/01 00:59:10;;;;;;;73.77;27.30;;;;;;;;;;5074246;28;20260;-42
2022/12/01 01:01:36;;;;;;;79.57;30.88;;;;;;;;;;5073895;28;20439;-42
2022/12/01 01:04:02;;;;;;;77.73;29.70;;;;;;;;;;5070340;28;20199;-42
2022/12/01 01:06:28;;;;;;;59.87;25.60;;;;;;;;;;5074085;28;20405;-42
2022/12/01 01:08:54;;;;;;;73.07;26.20;;;;;;;;;;5069391;28;20807;-42
2022/12/01 01:11:20;;;;;;;64.77;26.17;;;;;;;;;;5073188;28;20420;-42
2022/12/01 01:13:47;;;;;;;67.70;29.37;;;;;;;;;;5065919;28;20463;-43
2022/12/01 01:16:19;;;;;;;71.37;29.50;;;;;;;;;;5074158;28;20413;-42
2022/12/01 01:18:46;;;;;;;84.28;27.83;;;;;;;;;;5073510;28;20401;-42
2022/12/01 01:21:13;;;;;;;73.30;29.47;;;;;;;;;;5068878;28;20163;-42
2022/12/01 01:23:39;;;;;;;76.97;27.67;;;;;;;;;;5073820;28;20449;-43
2022/12/01 01:26:09;;;;;;;62.33;27.87;;;;;;;;;;5073955;28;20437;-43
2022/12/01 01:28:35;;;;;;;78.00;27.53;;;;;;;;;;5071790;28;20474;-42
2022/12/01 01:31:05;;;;;;;83.77;28.47;;;;;;;;;;5073386;28;20906;-42
2022/12/01 01:33:31;;;;;;;74.50;29.23;;;;;;;;;;5069246;28;20410;-42
2022/12/01 01:36:00;;;;;;;75.83;27.83;;;;;;;;;;5070205;28;20406;-42
2022/12/01 01:38:26;;;;;;;65.13;27.93;;;;;;;;;;5070542;28;20397;-43
2022/12/01 01:40:52;;;;;;;66.75;24.52;;;;;;;;;;5073283;28;20402;-43
2022/12/01 01:43:37;;;;;;;65.13;25.90;;;;;;;;;;5073474;28;20190;-43
2022/12/01 01:46:04;;;;;;;56.83;22.85;;;;;;;;;;5069856;28;20227;-42
2022/12/01 01:48:30;;;;;;;68.13;25.03;;;;;;;;;;5071992;28;20536;-42
2022/12/01 01:50:56;;;;;;;60.70;24.05;;;;;;;;;;5073107;28;20806;-42
2022/12/01 01:53:22;;;;;;;52.30;24.40;;;;;;;;;;5073189;28;20221;-42
2022/12/01 01:55:48;;;;;;;58.77;25.80;;;;;;;;;;5073222;28;20446;-42
2022/12/01 01:58:14;;;;;;;60.92;25.60;;;;;;;;;;5070700;28;20409;-42
2022/12/01 02:00:41;;;;;;;59.70;23.70;;;;;;;;;;5071726;28;20224;-43
2022/12/01 02:03:09;;;;;;;60.07;24.47;;;;;;;;;;5072398;28;20198;-43
2022/12/01 02:05:35;;;;;;;69.50;28.30;;;;;;;;;;5072177;28;20877;-43
2022/12/01 02:08:02;;;;;;;63.50;25.92;;;;;;;;;;5072534;28;20417;-42
2022/12/01 02:10:41;;;;;;;81.40;28.77;;;;;;;;;;5072627;28;20183;-42
2022/12/01 02:13:07;;;;;;;53.60;23.67;;;;;;;;;;5063903;28;20431;-42
2022/12/01 02:15:38;;;;;;;68.20;27.30;;;;;;;;;;5072641;28;20178;-42
2022/12/01 02:18:13;;;;;;;66.70;26.83;;;;;;;;;;5086163;28;20462;-42
2022/12/01 02:20:45;;;;;;;56.90;23.70;;;;;;;;;;5072605;28;20174;-42
2022/12/01 02:23:34;;;;;;;54.73;24.57;;;;;;;;;;5071918;28;20432;-42
2022/12/01 02:26:18;;;;;;;64.20;24.50;;;;;;;;;;5072429;28;20418;-43
2022/12/01 02:28:53;;;;;;;55.72;25.05;;;;;;;;;;5072484;28;20420;-42
2022/12/01 02:31:26;;;;;;;60.33;25.97;;;;;;;;;;5072101;28;20236;-42
2022/12/01 02:33:55;;;;;;;61.58;24.50;;;;;;;;;;5072413;28;20411;-43
2022/12/01 02:36:21;;;;;;;56.08;23.10;;;;;;;;;;5072317;28;20175;-42
2022/12/01 02:39:25;;;;;;;48.85;22.45;;;;;;;;;;5070653;28;20202;-42
2022/12/01 02:41:58;;;;;;;53.73;22.73;;;;;;;;;;5022328;28;20226;-42
2022/12/01 02:44:26;;;;;;;58.25;22.67;;;;;;;;;;5035044;28;20466;-42
2022/12/01 02:47:13;;;;;;;57.53;22.60;;;;;;;;;;5046348;28;20903;-42
2022/12/01 02:49:50;;;;;;;49.60;22.33;;;;;;;;;;5072064;28;20401;-43
2022/12/01 02:52:16;;;;;;;54.40;24.63;;;;;;;;;;5070111;28;20830;-43
2022/12/01 02:54:47;;;;;;;57.73;26.17;;;;;;;;;;5072474;28;20174;-42
2022/12/01 02:57:14;;;;;;;60.80;26.75;;;;;;;;;;5068080;28;20497;-42
2022/12/01 02:59:41;;;;;;;58.57;23.60;;;;;;;;;;5071112;28;20652;-43
2022/12/01 03:02:10;;;;;;;53.20;24.30;;;;;;;;;;5071558;28;20424;-42
2022/12/01 03:04:54;;;;;;;53.30;22.63;;;;;;;;;;5063533;28;20480;-43
2022/12/01 03:07:20;;;;;;;57.83;24.35;;;;;;;;;;5070477;28;20543;-43
2022/12/01 03:09:54;;;;;;;54.03;23.27;;;;;;;;;;5066862;28;20179;-43
2022/12/01 03:12:28;;;;;;;55.13;23.00;;;;;;;;;;5071441;28;20437;-42
2022/12/01 03:14:54;;;;;;;56.50;22.10;;;;;;;;;;5061729;28;20444;-42
2022/12/01 03:17:23;;;;;;;53.67;24.00;;;;;;;;;;5071758;28;20937;-43
2022/12/01 03:19:53;;;;;;;58.42;23.70;;;;;;;;;;5062232;28;20413;-42
2022/12/01 03:22:23;;;;;;;50.53;21.90;;;;;;;;;;5071311;28;20194;-43
2022/12/01 03:24:51;;;;;;;53.08;23.08;;;;;;;;;;5063803;28;20196;-42
2022/12/01 03:27:20;;;;;;;59.35;24.27;;;;;;;;;;5071844;28;20173;-42
2022/12/01 03:29:49;;;;;;;53.67;22.48;;;;;;;;;;5065115;28;20178;-43
2022/12/01 03:32:19;;;;;;;50.10;21.70;;;;;;;;;;5071140;28;20197;-42
2022/12/01 03:35:04;;;;;;;46.40;21.80;;;;;;;;;;5070529;28;20396;-42
2022/12/01 03:37:44;;;;;;;49.60;22.75;;;;;;;;;;5068394;28;20213;-42
2022/12/01 03:40:14;;;;;;;50.17;21.80;;;;;;;;;;5071381;28;20178;-42
2022/12/01 03:42:45;;;;;;;50.30;21.40;;;;;;;;;;5064692;28;20532;-43
2022/12/01 03:45:17;;;;;;;59.67;22.70;;;;;;;;;;5071494;28;20260;-42
2022/12/01 03:47:44;;;;;;;48.08;22.40;;;;;;;;;;5071665;28;20175;-44
2022/12/01 03:50:12;;;;;;;63.92;22.75;;;;;;;;;;5069656;28;20701;-42
2022/12/01 03:52:44;;;;;;;53.85;23.95;;;;;;;;;;5070098;28;20186;-42
2022/12/01 03:55:13;;;;;;;62.88;23.67;;;;;;;;;;5071330;28;20556;-43
2022/12/01 03:57:45;;;;;;;58.83;21.80;;;;;;;;;;5064842;28;20891;-42
2022/12/01 04:00:13;;;;;;;55.27;22.80;;;;;;;;;;5071130;28;20525;-42
2022/12/01 04:02:39;;;;;;;58.20;23.80;;;;;;;;;;5070891;28;20472;-42
2022/12/01 04:05:08;;;;;;;58.90;22.70;;;;;;;;;;5068849;28;20194;-42
2022/12/01 04:07:34;;;;;;;55.03;22.20;;;;;;;;;;5071322;28;20400;-42
2022/12/01 04:10:00;;;;;;;57.47;21.93;;;;;;;;;;5067485;28;20419;-42
2022/12/01 04:12:28;;;;;;;60.43;24.43;;;;;;;;;;5067492;28;20502;-42
2022/12/01 04:14:56;;;;;;;50.90;23.20;;;;;;;;;;5064139;28;20931;-42
2022/12/01 04:17:22;;;;;;;50.97;22.63;;;;;;;;;;5069689;28;20173;-43
2022/12/01 04:19:48;;;;;;;52.13;21.05;;;;;;;;;;5071079;28;20415;-43
2022/12/01 04:22:14;;;;;;;60.03;22.83;;;;;;;;;;5066009;28;20552;-43
2022/12/01 04:24:40;;;;;;;59.93;24.87;;;;;;;;;;5070681;28;20228;-42
2022/12/01 04:27:05;;;;;;;47.77;21.27;;;;;;;;;;5065243;28;20950;-42
2022/12/01 04:29:31;;;;;;;54.67;23.77;;;;;;;;;;5067648;28;20998;-42
2022/12/01 04:31:58;;;;;;;52.30;22.97;;;;;;;;;;5070610;28;20417;-42
2022/12/01 04:34:24;;;;;;;56.67;24.00;;;;;;;;;;5070984;28;20447;-43
2022/12/01 04:36:51;;;;;;;55.88;23.23;;;;;;;;;;5066359;28;20448;-43
2022/12/01 04:39:17;;;;;;;62.73;22.10;;;;;;;;;;5070869;28;20243;-44
2022/12/01 04:41:43;;;;;;;59.53;21.03;;;;;;;;;;5062599;28;20966;-42
2022/12/01 04:44:09;;;;;;;47.23;20.47;;;;;;;;;;5069548;28;20467;-41
2022/12/01 04:46:36;;;;;;;51.88;21.05;;;;;;;;;;5072785;28;20462;-43
2022/12/01 04:49:02;;;;;;;44.80;19.30;;;;;;;;;;5072621;28;20197;-43
2022/12/01 04:51:28;;;;;;;47.13;20.85;;;;;;;;;;5071546;28;20428;-42
2022/12/01 04:53:53;;;;;;;40.80;19.30;;;;;;;;;;5074370;28;20220;-42
2022/12/01 04:56:19;;;;;;;42.00;18.80;;;;;;;;;;5072785;28;20413;-41
2022/12/01 04:58:45;;;;;;;40.50;18.47;;;;;;;;;;5074233;28;20496;-42
2022/12/01 05:01:13;;;;;;;40.45;18.77;;;;;;;;;;5070976;28;20909;-43
2022/12/01 05:03:40;;;;;;;39.60;18.08;;;;;;;;;;5074167;28;20208;-43
2022/12/01 05:06:07;;;;;;;36.93;17.90;;;;;;;;;;5070032;28;20167;-42
2022/12/01 05:08:33;;;;;;;39.95;17.60;;;;;;;;;;5072456;28;20537;-44
2022/12/01 05:10:59;;;;;;;42.30;19.63;;;;;;;;;;5073754;28;20213;-41
2022/12/01 05:13:25;;;;;;;39.97;18.83;;;;;;;;;;5072697;28;20449;-42
2022/12/01 05:15:51;;;;;;;39.45;17.38;;;;;;;;;;5073979;28;20416;-41
2022/12/01 05:18:17;;;;;;;42.33;20.02;;;;;;;;;;5069667;28;20170;-42
2022/12/01 05:20:55;;;;;;;39.80;18.17;;;;;;;;;;5073646;28;20175;-42
2022/12/01 05:23:22;;;;;;;42.63;19.87;;;;;;;;;;5066047;28;20554;-41
2022/12/01 05:25:48;;;;;;;41.70;20.40;;;;;;;;;;5072729;28;20470;-42
2022/12/01 05:28:14;;;;;;;38.67;18.30;;;;;;;;;;5073920;28;20177;-42
2022/12/01 05:30:40;;;;;;;39.90;18.03;;;;;;;;;;5073476;28;20171;-43
2022/12/01 05:33:06;;;;;;;46.13;19.30;;;;;;;;;;5069074;28;20525;-43
2022/12/01 05:35:34;;;;;;;47.67;18.80;;;;;;;;;;5073548;28;20471;-43
2022/12/01 05:38:00;;;;;;;47.90;20.65;;;;;;;;;;5065988;28;20419;-42
2022/12/01 05:40:26;;;;;;;41.00;18.17;;;;;;;;;;5072280;28;20182;-42
2022/12/01 05:42:52;;;;;;;41.83;20.90;;;;;;;;;;5073349;28;20444;-42
2022/12/01 05:45:18;;;;;;;45.37;19.43;;;;;;;;;;5072484;28;20246;-42
2022/12/01 05:47:44;;;;;;;48.37;21.20;;;;;;;;;;5073364;28;20440;-42
2022/12/01 05:50:10;;;;;;;45.77;19.47;;;;;;;;;;5073314;28;20418;-44
2022/12/01 05:52:36;;;;;;;48.97;21.23;;;;;;;;;;5065431;28;20426;-43
2022/12/01 05:55:05;;;;;;;35.27;18.67;;;;;;;;;;5072247;28;20254;-42
2022/12/01 05:57:32;;;;;;;47.97;21.90;;;;;;;;;;5072307;28;20547;-42
2022/12/01 05:59:58;;;;;;;34.43;18.63;;;;;;;;;;5068938;28;20421;-43
2022/12/01 06:02:27;;;;;;;45.07;20.80;;;;;;;;;;5072501;28;20809;-42
2022/12/01 06:04:53;;;;;;;58.50;19.50;;;;;;;;;;5069220;28;20526;-42
2022/12/01 06:07:19;;;;;;;43.83;18.17;;;;;;;;;;5070994;28;20249;-43
2022/12/01 06:09:45;;;;;;;41.53;17.65;;;;;;;;;;5073010;28;20404;-42
2022/12/01 06:12:13;;;;;;;51.33;21.37;;;;;;;;;;5072609;28;20208;-42
2022/12/01 06:14:39;;;;;;;45.87;20.30;;;;;;;;;;5072840;28;20431;-42
2022/12/01 06:17:06;;;;;;;45.83;20.70;;;;;;;;;;5066983;28;20959;-42
2022/12/01 06:19:32;;;;;;;48.43;19.40;;;;;;;;;;5072970;28;20175;-42
2022/12/01 06:21:58;;;;;;;49.13;20.07;;;;;;;;;;5072479;28;20515;-42
2022/12/01 06:24:24;;;;;;;50.83;21.27;;;;;;;;;;5070009;28;20515;-42
2022/12/01 06:26:50;;;;;;;39.10;21.53;;;;;;;;;;5072689;28;20405;-42
2022/12/01 06:29:16;;;;;;;46.10;20.17;;;;;;;;;;5068488;28;20495;-42
2022/12/01 06:31:42;;;;;;;43.83;20.35;;;;;;;;;;5067079;28;20478;-42
2022/12/01 06:34:08;;;;;;;43.90;19.13;;;;;;;;;;5072675;28;20183;-44
2022/12/01 06:36:34;;;;;;;45.50;18.60;;;;;;;;;;5072344;28;20175;-42
2022/12/01 06:39:00;;;;;;;41.88;19.67;;;;;;;;;;5070036;28;20415;-42
2022/12/01 06:41:26;;;;;;;50.90;20.40;;;;;;;;;;5071914;28;20860;-43
2022/12/01 06:43:52;;;;;;;34.00;17.40;;;;;;;;;;5070499;28;20786;-42
2022/12/01 06:46:18;;;;;;;45.30;19.90;;;;;;;;;;5068270;28;20449;-42
2022/12/01 06:48:44;;;;;;;50.00;19.67;;;;;;;;;;5072254;28;20396;-42
2022/12/01 06:51:10;;;;;;;41.13;18.10;;;;;;;;;;5071862;28;20876;-42
2022/12/01 06:53:36;;;;;;;56.63;22.93;;;;;;;;;;5069675;28;20397;-43
2022/12/01 06:56:03;;;;;;;46.87;19.60;;;;;;;;;;5072012;28;20431;-42
2022/12/01 06:58:29;;;;;;;46.30;17.88;;;;;;;;;;5066257;28;20420;-42
2022/12/01 07:00:56;;;;;;;38.10;18.02;;;;;;;;;;5071528;28;20175;-42
2022/12/01 07:03:22;;;;;;;38.40;19.70;;;;;;;;;;5071989;28;20214;-43
2022/12/01 07:06:00;;;;;;;37.83;18.00;;;;;;;;;;5071852;28;20641;-43
2022/12/01 07:08:27;;;;;;;46.55;19.70;;;;;;;;;;5069216;28;20404;-43
2022/12/01 07:10:57;;;;;;;40.05;20.88;;;;;;;;;;5071431;28;20228;-42
2022/12/01 07:13:23;;;;;;;46.72;20.50;;;;;;;;;;5071624;28;20277;-42
2022/12/01 07:15:49;;;;;;;46.73;19.23;;;;;;;;;;5064336;28;20257;-43
2022/12/01 07:18:15;;;;;;;48.23;16.40;;;;;;;;;;5071230;28;20482;-42
2022/12/01 07:20:41;;;;;;;43.57;17.77;;;;;;;;;;5071531;28;20428;-42
2022/12/01 07:23:07;;;;;;;49.20;20.47;;;;;;;;;;5069494;28;20449;-43
2022/12/01 07:25:33;;;;;;;43.92;18.95;;;;;;;;;;5069797;28;20444;-43
2022/12/01 07:27:59;;;;;;;40.10;18.93;;;;;;;;;;5071529;28;20547;-43
2022/12/01 07:30:25;;;;;;;51.17;20.87;;;;;;;;;;5063741;28;20412;-42
2022/12/01 07:32:51;;;;;;;43.53;17.90;;;;;;;;;;5070596;28;20428;-42
2022/12/01 07:35:17;;;;;;;43.28;19.20;;;;;;;;;;5071567;28;20417;-42
2022/12/01 07:37:43;;;;;;;48.37;19.10;;;;;;;;;;5067518;28;20186;-42
2022/12/01 07:40:09;;;;;;;46.17;22.27;;;;;;;;;;5071530;28;20469;-42
2022/12/01 07:42:35;;;;;;;36.95;17.67;;;;;;;;;;5070016;28;20528;-42
2022/12/01 07:45:01;;;;;;;41.60;20.27;;;;;;;;;;5065278;28;20280;-42
2022/12/01 07:47:27;;;;;;;38.80;17.57;;;;;;;;;;5070703;28;20461;-43
2022/12/01 07:49:53;;;;;;;39.80;18.70;;;;;;;;;;5071477;28;20426;-43
2022/12/01 07:52:19;;;;;;;43.73;18.53;;;;;;;;;;5067103;28;20507;-43
2022/12/01 07:54:45;;;;;;;42.70;18.47;;;;;;;;;;5071341;28;20413;-42
2022/12/01 07:57:13;;;;;;;36.67;17.93;;;;;;;;;;5064019;28;20425;-42
2022/12/01 07:59:39;;;;;;;46.47;17.38;;;;;;;;;;5069852;28;20425;-42
2022/12/01 08:02:05;;;;;;;45.73;18.10;;;;;;;;;;5070866;28;20194;-43
2022/12/01 08:04:31;;;;;;;47.13;18.93;;;;;;;;;;5071160;28;20545;-42
2022/12/01 08:06:57;;;;;;;43.40;17.80;;;;;;;;;;5067388;28;20510;-42
2022/12/01 08:09:23;;;;;;;48.70;19.30;;;;;;;;;;5071154;28;20406;-42
2022/12/01 08:11:49;;;;;;;38.53;18.33;;;;;;;;;;5070220;28;20448;-42
2022/12/01 08:14:15;;;;;;;43.67;18.73;;;;;;;;;;5071246;28;20424;-43
2022/12/01 08:16:41;;;;;;;46.30;17.33;;;;;;;;;;5068830;28;20446;-43
2022/12/01 08:19:09;;;;;;;35.25;19.55;;;;;;;;;;5071196;28;20163;-44
2022/12/01 08:21:36;;;;;;;41.28;19.58;;;;;;;;;;5072788;28;20198;-43
2022/12/01 08:24:02;;;;;;;45.97;20.55;;;;;;;;;;5069406;28;20174;-43
2022/12/01 08:26:28;;;;;;;49.95;20.83;;;;;;;;;;5073748;28;20178;-42
2022/12/01 08:28:54;;;;;;;40.23;19.03;;;;;;;;;;5073765;28;20185;-42
2022/12/01 08:31:28;;;;;;;52.20;22.42;;;;;;;;;;5071042;28;20408;-42
2022/12/01 08:33:55;;;;;;;53.35;21.75;;;;;;;;;;5063362;28;20227;-43
2022/12/01 08:36:21;;;;;;;50.50;21.05;;;;;;;;;;5074420;28;20678;-43
2022/12/01 08:38:48;;;;;;;47.28;22.10;;;;;;;;;;5071442;28;20167;-42
2022/12/01 08:41:14;;;;;;;46.80;21.90;;;;;;;;;;5069645;28;20185;-42
2022/12/01 08:43:43;;;;;;;53.15;22.90;;;;;;;;;;5074059;28;20461;-42
2022/12/01 08:46:09;;;;;;;46.92;24.10;;;;;;;;;;5073833;28;20197;-42
2022/12/01 08:48:35;;;;;;;56.80;25.17;;;;;;;;;;5069172;28;20171;-43
2022/12/01 08:51:05;;;;;;;51.53;21.37;;;;;;;;;;5074051;28;20243;-42
2022/12/01 08:53:31;;;;;;;55.75;24.88;;;;;;;;;;5066730;28;20504;-42
2022/12/01 08:56:05;;;;;;;65.60;25.67;;;;;;;;;;5073601;28;20209;-42
2022/12/01 08:58:31;;;;;;;55.00;27.58;;;;;;;;;;5074198;28;20209;-42
2022/12/01 09:01:04;;;;;;;61.40;26.10;;;;;;;;;;5073273;28;20206;-42
2022/12/01 09:03:30;;;;;;;51.97;24.13;;;;;;;;;;5072661;28;20773;-43
2022/12/01 09:06:23;;;;;;;60.58;27.05;;;;;;;;;;5074025;28;20460;-43
2022/12/01 09:08:49;;;;;;;60.17;27.98;;;;;;;;;;5063806;28;20183;-42
2022/12/01 09:11:16;;;;;;;56.63;24.40;;;;;;;;;;5073714;28;20197;-43
2022/12/01 09:13:43;;;;;;;52.78;22.95;;;;;;;;;;5073909;28;20886;-42
2022/12/01 09:16:13;;;;;;;49.33;25.38;;;;;;;;;;5070121;28;20182;-43
2022/12/01 09:18:40;;;;;;;42.30;21.15;;;;;;;;;;5073749;28;20186;-42
2022/12/01 09:21:09;;;;;;;51.70;22.20;;;;;;;;;;5068661;28;20278;-42
2022/12/01 09:23:35;;;;;;;40.97;19.40;;;;;;;;;;5071929;28;20170;-42
2022/12/01 09:26:01;;;;;;;33.57;17.40;;;;;;;;;;5073354;28;20735;-43
2022/12/01 09:28:27;;;;;;;32.80;17.00;;;;;;;;;;5073394;28;20508;-42
2022/12/01 09:30:53;;;;;;;38.43;17.20;;;;;;;;;;5072644;28;20409;-43
2022/12/01 09:33:19;;;;;;;46.00;19.50;;;;;;;;;;5068457;28;20432;-42
2022/12/01 09:35:45;;;;;;;50.33;20.57;;;;;;;;;;5073404;28;20417;-42
2022/12/01 09:38:11;;;;;;;38.17;18.63;;;;;;;;;;5072649;28;20421;-42
2022/12/01 09:40:38;;;;;;;36.07;18.10;;;;;;;;;;5071362;28;20421;-43
2022/12/01 09:43:11;;;;;;;45.20;18.38;;;;;;;;;;5072769;28;20448;-42
2022/12/01 09:45:39;;;;;;;35.60;18.27;;;;;;;;;;5073597;28;20342;-43
2022/12/01 09:48:06;;;;;;;42.72;19.90;;;;;;;;;;5068194;28;20170;-43
2022/12/01 09:50:32;;;;;;;40.28;18.60;;;;;;;;;;5073246;28;20559;-42
2022/12/01 09:53:07;;;;;;;43.13;18.40;;;;;;;;;;5073473;28;20186;-42
2022/12/01 09:55:33;;;;;;;36.55;17.90;;;;;;;;;;5073286;28;20827;-42
2022/12/01 09:58:00;;;;;;;39.80;18.80;;;;;;;;;;5069676;28;20182;-42
2022/12/01 10:00:31;;;;;;;36.95;17.98;;;;;;;;;;5068044;28;20172;-42
2022/12/01 10:02:57;;;;;;;36.00;18.60;;;;;;;;;;5072814;28;20688;-42
2022/12/01 10:05:26;;;;;;;38.20;18.17;;;;;;;;;;5072993;28;20452;-42
2022/12/01 10:07:57;;;;;;;33.30;17.03;;;;;;;;;;5073007;28;20783;-42
2022/12/01 10:10:32;;;;;;;38.83;20.47;;;;;;;;;;5070924;28;20947;-42
2022/12/01 10:12:59;;;;;;;46.80;21.40;;;;;;;;;;5069733;28;20432;-43
2022/12/01 10:15:51;;;;;;;40.70;20.02;;;;;;;;;;5067803;28;20449;-42
2022/12/01 10:18:20;;;;;;;41.97;20.30;;;;;;;;;;5071444;28;20183;-42
2022/12/01 10:21:04;;;;;;;38.63;19.17;;;;;;;;;;5070149;28;20500;-42
2022/12/01 10:23:49;;;;;;;42.93;22.30;;;;;;;;;;5071088;28;20490;-42
2022/12/01 10:26:27;;;;;;;39.07;20.87;;;;;;;;;;5069481;28;20464;-42
2022/12/01 10:28:53;;;;;;;41.20;21.73;;;;;;;;;;5064776;28;20442;-42
2022/12/01 10:31:19;;;;;;;49.43;23.13;;;;;;;;;;5072009;28;20411;-42
2022/12/01 10:34:02;;;;;;;48.07;24.53;;;;;;;;;;5072463;28;20447;-42
2022/12/01 10:36:29;;;;;;;61.40;28.67;;;;;;;;;;5070882;28;20399;-42
2022/12/01 10:38:55;;;;;;;58.00;27.27;;;;;;;;;;5071586;28;20971;-42
2022/12/01 10:41:23;;;;;;;58.47;25.13;;;;;;;;;;5067089;28;20409;-42
2022/12/01 10:43:51;;;;;;;52.53;26.87;;;;;;;;;;5071715;28;20424;-43
2022/12/01 10:46:17;;;;;;;54.83;27.27;;;;;;;;;;5065761;28;20422;-42
2022/12/01 10:48:57;;;;;;;61.07;28.60;;;;;;;;;;5072230;28;20397;-42
2022/12/01 10:51:23;;;;;;;60.73;28.53;;;;;;;;;;5070327;28;20413;-42
2022/12/01 10:53:50;;;;;;;66.83;29.17;;;;;;;;;;5071916;28;20492;-42
2022/12/01 10:56:18;;;;;;;56.80;28.50;;;;;;;;;;5067970;28;20408;-42
2022/12/01 10:58:55;;;;;;;55.93;26.93;;;;;;;;;;5071664;28;20431;-42
2022/12/01 11:01:30;;;;;;;70.43;28.57;;;;;;;;;;5071687;28;20798;-42
2022/12/01 11:03:58;;;;;;;66.33;28.90;;;;;;;;;;5067664;28;20492;-42
2022/12/01 11:06:25;;;;;;;62.80;28.17;;;;;;;;;;5072019;28;20487;-42
2022/12/01 11:09:11;;;;;;;56.60;27.23;;;;;;;;;;5070619;28;20463;-42
2022/12/01 11:11:39;;;;;;;57.15;29.10;;;;;;;;;;5071354;28;20532;-42
2022/12/01 11:14:15;;;;;;;65.63;28.20;;;;;;;;;;5071852;28;20173;-42
2022/12/01 11:16:42;;;;;;;61.00;29.50;;;;;;;;;;5063814;28;20949;-42
2022/12/01 11:19:17;;;;;;;71.30;29.90;;;;;;;;;;5061168;28;20416;-42
2022/12/01 11:21:48;;;;;;;66.30;30.20;;;;;;;;;;5064088;28;20953;-42
2022/12/01 11:24:28;;;;;;;65.30;27.93;;;;;;;;;;5070759;28;20469;-42
2022/12/01 11:26:55;;;;;;;56.13;28.53;;;;;;;;;;5064554;28;20413;-42
2022/12/01 11:29:30;;;;;;;68.20;32.20;;;;;;;;;;5071424;28;20412;-42
2022/12/01 11:31:57;;;;;;;58.47;29.00;;;;;;;;;;5062067;28;20482;-42
2022/12/01 11:34:23;;;;;;;64.77;33.33;;;;;;;;;;5068864;28;20934;-42
2022/12/01 11:36:51;;;;;;;62.33;31.63;;;;;;;;;;5071637;28;20438;-42
2022/12/01 11:39:37;;;;;;;58.63;27.63;;;;;;;;;;5071171;28;20832;-42
2022/12/01 11:42:05;;;;;;;70.80;31.53;;;;;;;;;;5071139;28;20426;-42
2022/12/01 11:44:32;;;;;;;69.70;30.60;;;;;;;;;;5070215;28;20469;-42
2022/12/01 11:47:11;;;;;;;65.20;30.67;;;;;;;;;;5071382;28;20417;-42
2022/12/01 11:49:39;;;;;;;66.73;31.87;;;;;;;;;;5071446;28;20413;-42
2022/12/01 11:52:26;;;;;;;70.60;33.23;;;;;;;;;;5071086;28;20474;-42
2022/12/01 11:54:56;;;;;;;64.40;30.40;;;;;;;;;;5069002;28;20528;-42
2022/12/01 11:57:22;;;;;;;67.93;32.40;;;;;;;;;;5055040;28;20401;-42
2022/12/01 11:59:48;;;;;;;63.80;30.07;;;;;;;;;;5075153;28;20489;-42
2022/12/01 12:02:13;;;;;;;68.67;31.47;;;;;;;;;;5058187;28;20831;-42
2022/12/01 12:04:47;;;;;;;75.63;31.97;;;;;;;;;;5059830;28;20468;-42
2022/12/01 12:07:13;;;;;;;68.30;31.60;;;;;;;;;;5055321;28;20416;-42
2022/12/01 12:09:45;;;;;;;67.67;32.70;;;;;;;;;;5073069;28;20471;-42
2022/12/01 12:12:19;;;;;;;62.87;31.37;;;;;;;;;;5074881;28;20475;-42
2022/12/01 12:15:00;;;;;;;67.23;33.10;;;;;;;;;;5075282;28;20906;-42
2022/12/01 12:17:33;;;;;;;68.60;31.77;;;;;;;;;;5075006;28;20806;-42
2022/12/01 12:20:11;;;;;;;70.77;30.10;;;;;;;;;;5075143;28;20915;-42
2022/12/01 12:22:52;;;;;;;61.30;29.20;;;;;;;;;;5074549;28;20498;-42
2022/12/01 12:25:24;;;;;;;72.33;31.67;;;;;;;;;;5055118;28;20460;-42
2022/12/01 12:28:09;;;;;;;58.23;30.20;;;;;;;;;;5063910;28;20397;-42
2022/12/01 12:30:55;;;;;;;66.50;30.67;;;;;;;;;;5074928;28;20418;-42
2022/12/01 12:33:40;;;;;;;61.40;30.37;;;;;;;;;;5064351;28;20438;-42
2022/12/01 12:36:29;;;;;;;58.87;29.87;;;;;;;;;;5074854;28;20415;-42
2022/12/01 12:39:01;;;;;;;66.23;31.63;;;;;;;;;;5074691;28;20503;-42
2022/12/01 12:41:30;;;;;;;65.53;30.30;;;;;;;;;;5057468;28;20403;-42
2022/12/01 12:43:59;;;;;;;71.97;33.67;;;;;;;;;;5071870;28;20446;-42
2022/12/01 12:46:34;;;;;;;68.03;33.30;;;;;;;;;;5074690;28;20422;-42
2022/12/01 12:49:09;;;;;;;73.80;32.43;;;;;;;;;;5074651;28;20420;-42
2022/12/01 12:51:42;;;;;;;62.60;30.70;;;;;;;;;;5066330;28;20440;-42
2022/12/01 12:54:11;;;;;;;59.73;31.47;;;;;;;;;;5054543;28;20893;-42
2022/12/01 12:56:38;;;;;;;62.70;31.47;;;;;;;;;;5054571;28;20415;-42
2022/12/01 12:59:09;;;;;;;64.17;33.57;;;;;;;;;;5072113;28;20423;-42
2022/12/01 13:01:44;;;;;;;68.57;33.33;;;;;;;;;;5073842;28;20512;-42
2022/12/01 13:04:22;;;;;;;65.43;32.10;;;;;;;;;;5072759;28;20422;-42
2022/12/01 13:06:48;;;;;;;71.47;31.70;;;;;;;;;;5055778;28;20407;-42
2022/12/01 13:09:19;;;;;;;67.87;31.53;;;;;;;;;;5057434;28;20426;-42
2022/12/01 13:12:04;;;;;;;67.23;32.80;;;;;;;;;;5063873;28;20442;-42
2022/12/01 13:14:34;;;;;;;59.47;31.40;;;;;;;;;;5066591;28;20941;-42
2022/12/01 13:17:15;;;;;;;64.77;31.30;;;;;;;;;;5074148;28;20418;-42
2022/12/01 13:19:42;;;;;;;63.77;33.07;;;;;;;;;;5074036;28;20416;-42
2022/12/01 13:22:10;;;;;;;64.90;33.13;;;;;;;;;;5073030;28;20516;-42
2022/12/01 13:24:36;;;;;;;63.87;31.30;;;;;;;;;;5072657;28;20458;-42
2022/12/01 13:27:20;;;;;;;65.47;30.23;;;;;;;;;;5073210;28;20407;-42
2022/12/01 13:29:48;;;;;;;61.40;30.80;;;;;;;;;;5073197;28;20429;-42
2022/12/01 13:32:32;;;;;;;54.90;31.17;;;;;;;;;;5052996;28;20422;-42
2022/12/01 13:34:59;;;;;;;62.20;31.13;;;;;;;;;;5071716;28;20446;-42
2022/12/01 13:37:30;;;;;;;61.87;30.27;;;;;;;;;;5073218;28;20930;-42
2022/12/01 13:40:06;;;;;;;65.20;34.60;;;;;;;;;;5073832;28;20441;-42
2022/12/01 13:42:33;;;;;;;62.70;32.10;;;;;;;;;;5063125;28;20442;-42
2022/12/01 13:45:07;;;;;;;69.73;32.27;;;;;;;;;;5063821;28;20474;-42
2022/12/01 13:47:38;;;;;;;72.43;34.73;;;;;;;;;;5055700;28;20816;-42
2022/12/01 13:50:23;;;;;;;60.70;30.57;;;;;;;;;;5068132;28;20406;-42
2022/12/01 13:52:49;;;;;;;64.60;31.43;;;;;;;;;;5057353;28;20425;-42
2022/12/01 13:55:15;;;;;;;65.23;32.53;;;;;;;;;;5071473;28;20422;-42
2022/12/01 13:57:49;;;;;;;65.23;34.13;;;;;;;;;;5056071;28;20405;-42
2022/12/01 14:00:26;;;;;;;59.40;30.57;;;;;;;;;;5052415;28;20506;-41
2022/12/01 14:03:10;;;;;;;65.67;32.10;;;;;;;;;;5071424;28;20425;-42
2022/12/01 14:05:39;;;;;;;60.67;32.20;;;;;;;;;;5054850;28;20450;-42
2022/12/01 14:08:36;;;;;;;56.60;30.17;;;;;;;;;;5070176;28;20464;-42
2022/12/01 14:11:07;;;;;;;63.33;30.23;;;;;;;;;;5059030;28;20847;-42
2022/12/01 14:13:51;;;;;;;62.17;32.37;;;;;;;;;;5067604;28;20984;-42
2022/12/01 14:16:16;;;;;;;64.87;30.90;;;;;;;;;;5071924;28;20418;-42
2022/12/01 14:18:48;;;;;;;56.17;29.50;;;;;;;;;;5071792;28;20500;-42
2022/12/01 14:21:14;;;;;;;66.63;30.87;;;;;;;;;;5064233;28;20419;-42
2022/12/01 14:23:59;;;;;;;61.23;32.87;;;;;;;;;;5061915;28;20430;-42
2022/12/01 14:26:27;;;;;;;55.53;29.67;;;;;;;;;;5064891;28;20485;-42
2022/12/01 14:29:02;;;;;;;60.20;29.80;;;;;;;;;;5060289;28;20434;-42